createdAt,value
2022-10-18T00:00:17.332Z,6.53
2022-10-18T00:02:47.402Z,6.53
2022-10-18T00:05:18.921Z,6.22
2022-10-18T00:07:48.951Z,6.20
2022-10-18T00:10:18.960Z,6.60
2022-10-18T00:12:51.533Z,6.97
2022-10-18T00:15:24.964Z,7.15
2022-10-18T00:17:55.305Z,6.78
2022-10-18T00:20:25.625Z,6.65
2022-10-18T00:22:55.690Z,6.97
2022-10-18T00:25:25.762Z,6.68
2022-10-18T00:27:58.386Z,7.03
2022-10-18T00:30:28.523Z,7.10
2022-10-18T00:32:58.511Z,6.78
2022-10-18T00:35:29.017Z,6.63
2022-10-18T00:37:59.197Z,6.90
2022-10-18T00:40:29.188Z,7.35
2022-10-18T00:43:01.885Z,7.47
2022-10-18T00:45:32.060Z,6.63
2022-10-18T00:48:05.448Z,7.00
2022-10-18T00:50:37.566Z,6.97
2022-10-18T00:53:11.853Z,7.32
2022-10-18T00:55:42.089Z,6.57
2022-10-18T00:58:16.050Z,7.18
2022-10-18T01:00:46.037Z,6.95
2022-10-18T01:03:16.174Z,7.28
2022-10-18T01:05:49.585Z,6.80
2022-10-18T01:08:32.545Z,6.38
2022-10-18T01:11:16.077Z,6.97
2022-10-18T01:14:00.953Z,6.30
2022-10-18T01:16:39.493Z,6.85
2022-10-18T01:19:24.420Z,6.95
2022-10-18T01:21:58.934Z,7.00
2022-10-18T01:24:53.760Z,6.38
2022-10-18T01:27:49.990Z,6.78
2022-10-18T01:30:51.574Z,6.72
2022-10-18T01:33:31.187Z,6.68
2022-10-18T01:36:06.381Z,6.47
2022-10-18T01:38:39.743Z,6.47
2022-10-18T01:41:15.594Z,7.60
2022-10-18T01:43:48.239Z,6.80
2022-10-18T01:46:24.828Z,6.93
2022-10-18T01:48:56.501Z,6.80
2022-10-18T01:51:29.281Z,6.75
2022-10-18T01:54:00.154Z,6.30
2022-10-18T01:56:39.998Z,6.55
2022-10-18T01:59:33.511Z,7.30
2022-10-18T02:02:18.608Z,6.85
2022-10-18T02:04:54.532Z,6.35
2022-10-18T02:07:32.524Z,6.50
2022-10-18T02:10:09.927Z,6.78
2022-10-18T02:12:43.285Z,6.93
2022-10-18T02:15:17.489Z,7.00
2022-10-18T02:17:53.562Z,6.97
2022-10-18T02:20:29.144Z,6.95
2022-10-18T02:23:01.299Z,6.72
2022-10-18T02:25:34.574Z,6.95
2022-10-18T02:28:05.239Z,6.85
2022-10-18T02:30:43.908Z,7.90
2022-10-18T02:33:22.373Z,6.90
2022-10-18T02:35:58.492Z,6.97
2022-10-18T02:38:30.441Z,6.60
2022-10-18T02:41:01.085Z,6.45
2022-10-18T02:43:31.175Z,7.13
2022-10-18T02:46:01.549Z,8.02
2022-10-18T02:48:34.130Z,7.80
2022-10-18T02:51:04.348Z,7.20
2022-10-18T02:53:34.294Z,7.15
2022-10-18T02:56:04.315Z,6.65
2022-10-18T02:58:34.357Z,6.13
2022-10-18T03:01:04.994Z,6.80
2022-10-18T03:03:37.682Z,6.68
2022-10-18T03:06:07.801Z,6.95
2022-10-18T03:08:39.294Z,6.90
2022-10-18T03:11:09.849Z,6.20
2022-10-18T03:13:39.911Z,7.38
2022-10-18T03:16:09.929Z,6.70
2022-10-18T03:18:42.888Z,7.10
2022-10-18T03:21:12.943Z,6.80
2022-10-18T03:23:42.914Z,7.07
2022-10-18T03:26:13.370Z,6.65
2022-10-18T03:28:43.486Z,7.53
2022-10-18T03:31:13.626Z,7.43
2022-10-18T03:33:46.352Z,6.68
2022-10-18T03:36:16.342Z,7.10
2022-10-18T03:38:46.344Z,7.25
2022-10-18T03:41:16.284Z,6.70
2022-10-18T03:43:46.255Z,7.22
2022-10-18T03:46:16.509Z,6.35
2022-10-18T03:48:49.217Z,7.40
2022-10-18T03:51:19.287Z,7.68
2022-10-18T03:53:49.381Z,7.32
2022-10-18T03:56:19.378Z,7.63
2022-10-18T03:58:49.391Z,6.90
2022-10-18T04:01:19.619Z,7.22
2022-10-18T04:03:52.257Z,6.75
2022-10-18T04:06:22.291Z,7.40
2022-10-18T04:08:52.349Z,6.90
2022-10-18T04:11:22.307Z,6.90
2022-10-18T04:13:52.809Z,6.93
2022-10-18T04:16:25.018Z,7.05
2022-10-18T04:19:00.569Z,7.07
2022-10-18T04:21:30.516Z,7.40
2022-10-18T04:24:01.237Z,7.03
2022-10-18T04:26:31.195Z,6.60
2022-10-18T04:29:01.374Z,7.88
2022-10-18T04:31:31.458Z,7.38
2022-10-18T04:34:04.631Z,7.78
2022-10-18T04:36:34.945Z,7.23
2022-10-18T04:39:04.916Z,6.68
2022-10-18T04:41:34.869Z,7.40
2022-10-18T04:44:04.965Z,6.85
2022-10-18T04:46:34.933Z,6.65
2022-10-18T04:49:09.870Z,7.70
2022-10-18T04:51:40.023Z,7.60
2022-10-18T04:54:10.116Z,7.50
2022-10-18T04:56:40.745Z,7.47
2022-10-18T04:59:10.705Z,7.60
2022-10-18T05:01:40.750Z,7.15
2022-10-18T05:04:13.394Z,7.80
2022-10-18T05:06:43.476Z,7.28
2022-10-18T05:09:13.554Z,8.70
2022-10-18T05:11:43.785Z,8.70
2022-10-18T05:14:13.817Z,8.73
2022-10-18T05:16:44.081Z,7.57
2022-10-18T05:19:16.712Z,8.35
2022-10-18T05:21:47.893Z,8.50
2022-10-18T05:24:17.886Z,8.90
2022-10-18T05:26:47.869Z,9.18
2022-10-18T05:29:18.157Z,8.63
2022-10-18T05:31:48.233Z,9.35
2022-10-18T05:34:22.009Z,9.82
2022-10-18T05:36:52.040Z,9.93
2022-10-18T05:39:22.061Z,8.85
2022-10-18T05:41:52.225Z,9.00
2022-10-18T05:44:22.486Z,9.20
2022-10-18T05:46:52.481Z,8.85
2022-10-18T05:49:25.156Z,10.15
2022-10-18T05:51:55.469Z,9.73
2022-10-18T05:54:25.432Z,9.70
2022-10-18T05:56:55.483Z,8.73
2022-10-18T05:59:25.789Z,8.77
2022-10-18T06:01:55.829Z,10.00
2022-10-18T06:04:28.461Z,9.85
2022-10-18T06:06:58.449Z,9.60
2022-10-18T06:09:28.849Z,9.57
2022-10-18T06:11:58.985Z,8.80
2022-10-18T06:14:29.059Z,8.80
2022-10-18T06:16:59.325Z,9.05
2022-10-18T06:19:31.949Z,8.75
2022-10-18T06:22:02.002Z,9.15
2022-10-18T06:24:31.954Z,9.82
2022-10-18T06:29:54.648Z,8.73
2022-10-18T06:32:24.677Z,9.18
2022-10-18T06:35:00.201Z,8.88
2022-10-18T06:37:33.231Z,8.70
2022-10-18T06:40:05.231Z,9.63
2022-10-18T06:42:35.567Z,8.70
2022-10-18T06:45:09.987Z,8.43
2022-10-18T06:47:39.947Z,8.95
2022-10-18T06:50:13.248Z,8.18
2022-10-18T06:52:43.602Z,8.15
2022-10-18T06:55:13.585Z,7.28
2022-10-18T06:57:43.686Z,8.35
2022-10-18T07:00:15.484Z,7.85
2022-10-18T07:02:45.467Z,7.78
2022-10-18T07:05:18.562Z,7.80
2022-10-18T07:07:50.687Z,8.45
2022-10-18T07:10:23.568Z,8.57
2022-10-18T07:13:07.964Z,8.95
2022-10-18T07:15:43.933Z,9.10
2022-10-18T07:18:14.074Z,9.27
2022-10-18T07:20:46.652Z,8.48
2022-10-18T07:23:21.133Z,7.85
2022-10-18T07:25:51.064Z,7.93
2022-10-18T07:28:21.298Z,8.65
2022-10-18T07:30:51.621Z,8.00
2022-10-18T07:33:21.594Z,7.68
2022-10-18T07:35:54.165Z,8.60
2022-10-18T07:38:24.166Z,7.45
2022-10-18T07:40:59.866Z,8.13
2022-10-18T07:43:30.298Z,7.72
2022-10-18T07:46:01.966Z,7.15
2022-10-18T07:48:32.473Z,6.57
2022-10-18T07:51:05.626Z,6.72
2022-10-18T07:53:36.602Z,7.45
2022-10-18T07:56:09.778Z,6.78
2022-10-18T07:58:40.364Z,7.35
2022-10-18T08:01:11.710Z,6.90
2022-10-18T08:03:41.980Z,7.07
2022-10-18T08:06:18.177Z,7.10
2022-10-18T08:08:49.055Z,7.13
2022-10-18T08:11:21.444Z,6.18
2022-10-18T08:13:52.713Z,7.10
2022-10-18T08:16:24.313Z,8.20
2022-10-18T08:18:55.324Z,6.85
2022-10-18T08:21:29.409Z,7.32
2022-10-18T08:23:59.392Z,7.20
2022-10-18T08:26:29.369Z,7.00
2022-10-18T08:29:10.657Z,7.35
2022-10-18T08:31:47.892Z,7.13
2022-10-18T08:34:19.830Z,7.03
2022-10-18T08:36:52.618Z,6.80
2022-10-18T08:39:23.652Z,6.57
2022-10-18T08:42:15.722Z,6.38
2022-10-18T08:44:48.869Z,6.20
2022-10-18T08:47:22.677Z,6.10
2022-10-18T08:49:57.022Z,6.13
2022-10-18T08:52:36.412Z,6.30
2022-10-18T08:55:14.359Z,6.43
2022-10-18T08:57:44.645Z,6.68
2022-10-18T09:00:19.358Z,7.38
2022-10-18T09:03:10.610Z,7.10
2022-10-18T09:05:53.313Z,6.97
2022-10-18T09:08:58.648Z,7.03
2022-10-18T09:11:46.064Z,7.03
2022-10-18T09:14:31.789Z,7.80
2022-10-18T09:17:15.843Z,7.03
2022-10-18T09:19:55.996Z,4.90
2022-10-18T09:22:34.961Z,4.38
2022-10-18T09:25:19.101Z,5.22
2022-10-18T09:27:56.153Z,4.60
2022-10-18T09:30:42.601Z,5.00
2022-10-18T09:33:31.413Z,5.45
2022-10-18T09:36:04.881Z,5.25
2022-10-18T09:38:40.129Z,5.18
2022-10-18T09:41:18.921Z,5.00
2022-10-18T09:43:59.197Z,4.90
2022-10-18T09:46:33.330Z,5.82
2022-10-18T09:49:07.489Z,5.68
2022-10-18T09:51:40.237Z,5.75
2022-10-18T09:54:23.118Z,5.77
2022-10-18T09:57:01.130Z,5.18
2022-10-18T09:59:38.491Z,5.32
2022-10-18T10:02:09.534Z,4.70
2022-10-18T10:04:39.638Z,4.95
2022-10-18T10:07:12.379Z,5.65
2022-10-18T10:09:47.264Z,6.27
2022-10-18T10:12:34.528Z,4.97
2022-10-18T10:15:13.193Z,4.40
2022-10-18T10:17:43.421Z,4.60
2022-10-18T10:20:21.684Z,5.22
2022-10-18T10:22:53.787Z,5.22
2022-10-18T10:25:28.795Z,5.03
2022-10-18T10:28:06.577Z,4.78
2022-10-18T10:30:38.671Z,4.55
2022-10-18T10:33:09.547Z,5.40
2022-10-18T10:35:56.591Z,5.07
2022-10-18T10:38:28.321Z,4.50
2022-10-18T10:40:58.947Z,4.88
2022-10-18T10:43:39.618Z,5.22
2022-10-18T10:46:12.709Z,4.95
2022-10-18T10:48:49.441Z,5.60
2022-10-18T10:51:31.054Z,4.88
2022-10-18T10:54:04.454Z,5.13
2022-10-18T10:56:36.824Z,5.00
2022-10-18T10:59:17.314Z,5.53
2022-10-18T11:01:49.912Z,5.35
2022-10-18T11:04:29.266Z,5.15
2022-10-18T11:07:06.926Z,4.90
2022-10-18T11:09:46.570Z,4.53
2022-10-18T11:12:26.818Z,5.03
2022-10-18T11:15:10.084Z,5.05
2022-10-18T11:17:45.710Z,5.03
2022-10-18T11:20:24.318Z,4.72
2022-10-18T11:23:03.473Z,4.95
2022-10-18T11:25:51.491Z,4.47
2022-10-18T11:28:31.550Z,5.30
2022-10-18T11:31:15.000Z,4.80
2022-10-18T11:34:08.635Z,5.25
2022-10-18T11:37:15.862Z,4.93
2022-10-18T11:40:01.541Z,4.80
2022-10-18T11:42:40.089Z,4.00
2022-10-18T11:48:49.505Z,5.22
2022-10-18T11:51:38.688Z,4.60
2022-10-18T11:54:32.815Z,5.43
2022-10-18T11:57:16.433Z,5.28
2022-10-18T11:59:58.673Z,4.20
2022-10-18T12:02:57.263Z,4.55
2022-10-18T12:05:31.880Z,5.55
2022-10-18T12:08:05.568Z,4.32
2022-10-18T12:10:52.688Z,4.88
2022-10-18T12:13:33.537Z,4.50
2022-10-18T12:16:07.032Z,5.15
2022-10-18T12:18:46.131Z,4.45
2022-10-18T12:21:25.467Z,3.95
2022-10-18T12:23:58.407Z,4.38
2022-10-18T12:26:32.448Z,4.00
2022-10-18T12:29:16.784Z,4.93
2022-10-18T12:31:51.115Z,4.30
2022-10-18T12:38:03.692Z,4.32
2022-10-18T12:40:38.978Z,3.92
2022-10-18T12:43:14.925Z,4.05
2022-10-18T12:45:52.719Z,5.13
2022-10-18T12:48:42.717Z,4.10
2022-10-18T12:51:17.861Z,4.55
2022-10-18T12:53:57.117Z,4.22
2022-10-18T12:56:42.029Z,4.22
2022-10-18T12:59:54.022Z,3.92
2022-10-18T13:02:34.267Z,3.90
2022-10-18T13:05:53.556Z,4.25
2022-10-18T13:08:42.162Z,4.40
2022-10-18T13:11:39.010Z,4.57
2022-10-18T13:14:48.188Z,4.10
2022-10-18T13:17:36.557Z,4.10
2022-10-18T13:20:27.307Z,4.53
2022-10-18T13:23:28.240Z,4.10
2022-10-18T13:26:15.794Z,3.92
2022-10-18T13:28:56.055Z,4.20
2022-10-18T13:31:33.645Z,4.30
2022-10-18T13:34:30.916Z,4.05
2022-10-18T13:37:05.886Z,3.97
2022-10-18T13:39:36.588Z,4.07
2022-10-18T13:42:23.699Z,4.10
2022-10-18T13:44:56.385Z,4.78
2022-10-18T13:47:37.468Z,4.20
2022-10-18T13:50:30.623Z,4.35
2022-10-18T13:53:30.495Z,4.30
2022-10-18T13:56:22.822Z,4.00
2022-10-18T13:59:14.446Z,3.90
2022-10-18T14:02:02.880Z,4.03
2022-10-18T14:05:23.090Z,4.13
2022-10-18T14:07:53.879Z,5.00
2022-10-18T14:10:43.860Z,4.32
2022-10-18T14:15:55.574Z,4.03
2022-10-18T14:18:32.027Z,4.60
2022-10-18T14:21:13.729Z,4.40
2022-10-18T14:23:47.580Z,4.50
2022-10-18T14:26:19.662Z,4.15
2022-10-18T14:29:05.863Z,4.40
2022-10-18T14:31:38.990Z,4.82
2022-10-18T14:34:20.625Z,3.97
2022-10-18T14:36:51.993Z,4.13
2022-10-18T14:39:25.085Z,4.20
2022-10-18T14:41:56.609Z,4.57
2022-10-18T14:44:30.322Z,4.55
2022-10-18T14:47:05.434Z,4.40
2022-10-18T14:49:45.783Z,4.10
2022-10-18T14:52:18.832Z,4.63
2022-10-18T14:54:49.449Z,4.72
2022-10-18T14:57:22.541Z,4.00
2022-10-18T14:59:58.194Z,4.38
2022-10-18T15:02:30.042Z,4.63
2022-10-18T15:05:09.286Z,4.30
2022-10-18T15:07:39.812Z,4.35
2022-10-18T15:10:19.764Z,4.60
2022-10-18T15:13:08.707Z,5.32
2022-10-18T15:15:39.454Z,4.28
2022-10-18T15:18:10.998Z,4.68
2022-10-18T15:20:43.601Z,5.45
2022-10-18T15:23:26.466Z,4.88
2022-10-18T15:26:06.456Z,4.32
2022-10-18T15:28:39.755Z,4.50
2022-10-18T15:31:28.316Z,4.10
2022-10-18T15:34:11.655Z,4.63
2022-10-18T15:39:34.659Z,4.65
2022-10-18T15:42:05.499Z,5.18
2022-10-18T15:44:36.951Z,5.78
2022-10-18T15:47:21.851Z,4.78
2022-10-18T15:49:55.648Z,4.53
2022-10-18T15:52:38.789Z,4.90
2022-10-18T15:55:39.175Z,4.50
2022-10-18T15:58:14.350Z,4.47
2022-10-18T16:00:45.500Z,4.28
2022-10-18T16:03:16.174Z,4.35
2022-10-18T16:05:46.698Z,4.78
2022-10-18T16:08:28.902Z,4.25
2022-10-18T16:10:59.683Z,5.10
2022-10-18T16:13:31.358Z,4.60
2022-10-18T16:16:02.374Z,5.60
2022-10-18T16:18:32.422Z,5.32
2022-10-18T16:21:02.502Z,5.93
2022-10-18T16:23:35.235Z,6.45
2022-10-18T16:26:05.329Z,5.72
2022-10-18T16:28:36.008Z,6.20
2022-10-18T16:31:06.825Z,5.30
2022-10-18T16:33:37.115Z,6.35
2022-10-18T16:36:07.665Z,5.90
2022-10-18T16:38:40.337Z,5.53
2022-10-18T16:41:11.639Z,6.55
2022-10-18T16:43:42.255Z,5.50
2022-10-18T16:46:17.787Z,5.75
2022-10-18T16:48:48.997Z,6.03
2022-10-18T16:51:19.766Z,6.35
2022-10-18T16:53:53.525Z,6.10
2022-10-18T16:56:33.195Z,6.68
2022-10-18T16:59:03.914Z,6.75
2022-10-18T17:01:34.047Z,6.13
2022-10-18T17:04:04.106Z,7.65
2022-10-18T17:06:36.373Z,9.60
2022-10-18T17:09:09.326Z,9.80
2022-10-18T17:11:39.368Z,9.90
2022-10-18T17:14:09.374Z,9.93
2022-10-18T17:16:40.287Z,11.02
2022-10-18T17:19:13.471Z,9.57
2022-10-18T17:21:43.826Z,10.02
2022-10-18T17:24:16.555Z,11.30
2022-10-18T17:26:52.060Z,10.45
2022-10-18T17:29:23.021Z,13.35
2022-10-18T17:31:53.259Z,12.77
2022-10-18T17:34:26.349Z,10.82
2022-10-18T17:36:56.629Z,11.07
2022-10-18T17:39:35.995Z,10.05
2022-10-18T17:42:06.136Z,9.20
2022-10-18T17:44:43.364Z,10.35
2022-10-18T17:47:13.405Z,10.82
2022-10-18T17:49:45.078Z,11.85
2022-10-18T17:52:19.946Z,11.75
2022-10-18T17:54:52.602Z,12.15
2022-10-18T17:57:22.706Z,12.70
2022-10-18T17:59:54.948Z,11.90
2022-10-18T18:02:25.198Z,12.10
2022-10-18T18:04:57.481Z,11.45
2022-10-18T18:07:27.580Z,11.65
2022-10-18T18:10:00.333Z,11.60
2022-10-18T18:12:30.534Z,10.85
2022-10-18T18:15:00.666Z,10.70
2022-10-18T18:17:34.338Z,10.43
2022-10-18T18:20:10.907Z,10.25
2022-10-18T18:22:42.676Z,10.73
2022-10-18T18:25:15.972Z,10.75
2022-10-18T18:27:46.198Z,10.53
2022-10-18T18:30:19.397Z,11.23
2022-10-18T18:32:49.387Z,11.68
2022-10-18T18:35:19.493Z,10.57
2022-10-18T18:37:53.247Z,10.63
2022-10-18T18:40:26.362Z,10.23
2022-10-18T18:43:07.147Z,9.05
2022-10-18T18:45:53.394Z,9.35
2022-10-18T18:48:23.420Z,10.50
2022-10-18T18:50:53.504Z,9.90
2022-10-18T18:53:27.215Z,8.73
2022-10-18T18:56:08.247Z,9.48
2022-10-18T18:58:40.204Z,9.25
2022-10-18T19:01:12.215Z,8.93
2022-10-18T19:03:43.341Z,8.38
2022-10-18T19:06:15.889Z,9.23
2022-10-18T19:08:47.586Z,8.18
2022-10-18T19:11:22.001Z,8.18
2022-10-18T19:13:52.617Z,8.43
2022-10-18T19:16:26.005Z,7.55
2022-10-18T19:19:01.894Z,7.90
2022-10-18T19:21:34.637Z,7.97
2022-10-18T19:24:08.512Z,7.95
2022-10-18T19:26:44.904Z,7.50
2022-10-18T19:29:17.599Z,9.13
2022-10-18T19:31:48.213Z,8.10
2022-10-18T19:34:19.919Z,8.52
2022-10-18T19:36:51.246Z,8.27
2022-10-18T19:39:23.271Z,7.95
2022-10-18T19:41:57.963Z,8.32
2022-10-18T19:44:30.940Z,8.35
2022-10-18T19:47:01.381Z,7.57
2022-10-18T19:49:31.896Z,8.23
2022-10-18T19:52:02.155Z,8.80
2022-10-18T19:54:33.873Z,7.88
2022-10-18T19:57:07.110Z,7.32
2022-10-18T19:59:37.724Z,8.77
2022-10-18T20:02:07.930Z,8.07
2022-10-18T20:04:38.359Z,8.77
2022-10-18T20:07:08.470Z,8.93
2022-10-18T20:09:40.442Z,8.02
2022-10-18T20:12:13.116Z,8.48
2022-10-18T20:14:43.150Z,7.72
2022-10-18T20:17:13.781Z,8.30
2022-10-18T20:19:43.971Z,7.72
2022-10-18T20:22:14.136Z,7.63
2022-10-18T20:24:44.126Z,7.38
2022-10-18T20:27:16.671Z,7.18
2022-10-18T20:29:54.197Z,7.10
2022-10-18T20:32:24.602Z,7.65
2022-10-18T20:34:54.697Z,6.68
2022-10-18T20:37:24.741Z,7.22
2022-10-18T20:39:55.178Z,6.95
2022-10-18T20:42:27.906Z,7.97
2022-10-18T20:44:57.997Z,7.07
2022-10-18T20:47:28.078Z,7.25
2022-10-18T20:49:59.389Z,6.88
2022-10-18T20:52:29.933Z,7.45
2022-10-18T20:54:59.959Z,7.35
2022-10-18T20:57:36.522Z,6.80
2022-10-18T21:00:13.021Z,6.93
2022-10-18T21:02:43.034Z,6.55
2022-10-18T21:05:13.030Z,6.90
2022-10-18T21:07:43.354Z,6.60
2022-10-18T21:10:14.812Z,7.68
2022-10-18T21:12:49.728Z,7.90
2022-10-18T21:15:19.861Z,7.13
2022-10-18T21:17:53.191Z,6.93
2022-10-18T21:20:25.213Z,6.97
2022-10-18T21:22:57.136Z,6.75
2022-10-18T21:25:27.225Z,7.18
2022-10-18T21:27:59.846Z,7.38
2022-10-18T21:30:30.457Z,7.00
2022-10-18T21:33:00.453Z,8.15
2022-10-18T21:35:30.403Z,7.57
2022-10-18T21:38:00.376Z,7.90
2022-10-18T21:40:30.519Z,7.10
2022-10-18T21:43:03.082Z,6.97
2022-10-18T21:45:33.068Z,6.68
2022-10-18T21:48:03.109Z,6.70
2022-10-18T21:50:33.142Z,6.43
2022-10-18T21:53:03.078Z,5.82
2022-10-18T21:55:33.101Z,6.80
2022-10-18T21:58:06.533Z,6.50
2022-10-18T22:00:36.828Z,5.55
2022-10-18T22:03:10.459Z,6.35
2022-10-18T22:05:40.750Z,6.28
2022-10-18T22:08:10.989Z,6.28
2022-10-18T22:10:41.037Z,6.57
2022-10-18T22:13:13.698Z,6.63
2022-10-18T22:15:43.724Z,6.55
2022-10-18T22:18:13.741Z,6.55
2022-10-18T22:20:58.529Z,6.30
2022-10-18T22:23:34.805Z,6.65
2022-10-18T22:26:07.679Z,6.45
2022-10-18T22:28:41.063Z,6.93
2022-10-18T22:31:17.213Z,6.82
2022-10-18T22:33:48.847Z,6.28
2022-10-18T22:36:18.802Z,6.15
2022-10-18T22:38:48.816Z,6.20
2022-10-18T22:41:19.184Z,5.90
2022-10-18T22:43:53.198Z,7.00
2022-10-18T22:48:53.330Z,5.90
2022-10-18T22:51:23.643Z,6.38
2022-10-18T22:53:53.684Z,6.88
2022-10-18T22:56:25.048Z,7.10
2022-10-18T22:58:58.238Z,5.47
2022-10-18T23:01:28.270Z,7.90
2022-10-18T23:03:59.522Z,8.23
2022-10-18T23:06:30.852Z,7.45
2022-10-18T23:09:05.000Z,6.88
2022-10-18T23:11:37.069Z,7.20
2022-10-18T23:14:10.249Z,7.18
2022-10-18T23:16:40.299Z,6.75
2022-10-18T23:19:10.538Z,7.25
2022-10-18T23:21:40.553Z,6.28
2022-10-18T23:24:10.532Z,6.75
2022-10-18T23:26:40.565Z,6.30
2022-10-18T23:29:13.145Z,5.80
2022-10-18T23:31:43.274Z,6.03
2022-10-18T23:34:13.377Z,5.78
2022-10-18T23:39:14.531Z,6.20
2022-10-18T23:41:44.612Z,6.13
2022-10-18T23:44:17.569Z,6.20
2022-10-18T23:46:47.601Z,5.10
2022-10-18T23:49:17.967Z,5.85
2022-10-18T23:51:48.095Z,5.57
2022-10-18T23:54:18.059Z,5.47
2022-10-18T23:56:50.991Z,5.25
2022-10-18T23:59:26.935Z,6.07
